Terminal Aerodrome Forecast
Issued by NWS

Home | Current Version | Previous Version | Text Only | Print | Product List | Glossary On
Versions: 1 2 3 4 5 6 7 8 9 10 11 12 13 14 15 16
386
FTUS44 KCRP 290709 AAA
TAFLRD
TAF AMD
KLRD 290709Z 2907/3006 15015G22KT P6SM SCT022
      TEMPO 2907/2909 BKN018
     FM290900 36014KT P6SM BKN021
     FM291300 31011KT P6SM SKC=

USA.gov is the U.S. government's official web portal to all federal, state and local government web resources and services.